Weather at Büllingen Airfield

Public forecast

Using degrees Celsius for public forecast. Weather courtesy of forecast.io.

Closest aviation weather report (METAR) to Büllingen Airfield

Closest report is Elsenborn Air Base, 5.5 nm (10.2 km) NW.

(retrieved 0 seconds ago)

Closest aviation forecast (TAF) to Büllingen Airfield

Closest forecast is Spangdahlem Air Base, 30.9 nm (57.3 km) SSE.

2024/05/25 14:44 (retrieved 3 hours ago)

TAF ETAD 251400Z 2514/2620 25009KT 9999 SCT025 BKN050 QNH3004INS TEMPO 2514/2516 8000 -RA BKN025 BECMG 2519/2520 11006KT 9999 BKN025 QNH3005INS BECMG 2600/2601 08003KT 5000 BR SCT020 QNH3005INS BECMG 2606/2607 08006KT 9999 NSW SCT200 QNH3003INS BECMG 2610/2611 17010G18KT 9999 SCT100 QNH2997INS TX19/2514Z TN11/2606Z LAST NO AMDS AFT 2514Z NEXT 2510Z